Terminal Aerodrome Forecast
Issued by NWS Wilmington, OH

Current Version | Previous Version | Graphics & Text | Print | Product List | Glossary On
Versions: 1 2 3 4 5 6 7 8 9 10 11 12 13 14 15 16 17 18 19 20 21 22 23 24 25 26 27 28 29 30 31 32
000
FTUS41 KILN 201454 AAA
TAFCVG
TAF AMD
KCVG 201454Z 2015/2118 22011G20KT P6SM SCT100 BKN250
     FM201800 22015G25KT P6SM SCT050 BKN250
     FM210000 23010G18KT P6SM -SHRA VCTS BKN050CB
      TEMPO 2102/2104 3SM -TSRA BKN030CB
     FM210400 26010KT 5SM -SHRA OVC035
     FM210600 30008KT P6SM BKN015
     FM211200 30008KT P6SM SCT015=

USA.gov is the U.S. government's official web portal to all federal, state and local government web resources and services.